createdAt,value
2022-08-27T00:03:03.312Z,94.30
2022-08-27T00:06:46.248Z,94.40
2022-08-27T00:10:28.266Z,94.70
2022-08-27T00:14:10.045Z,95.00
2022-08-27T00:17:52.493Z,95.20
2022-08-27T00:21:34.315Z,95.50
2022-08-27T00:25:16.573Z,95.60
2022-08-27T00:28:58.385Z,95.90
2022-08-27T00:32:41.201Z,96.00
2022-08-27T00:36:24.072Z,96.20
2022-08-27T00:40:08.899Z,96.60
2022-08-27T00:43:50.746Z,97.40
2022-08-27T00:47:39.739Z,96.70
2022-08-27T00:51:22.669Z,98.30
2022-08-27T00:55:15.168Z,97.10
2022-08-27T00:58:57.565Z,99.50
2022-08-27T01:02:39.462Z,97.20
2022-08-27T01:06:23.223Z,97.30
2022-08-27T01:10:10.207Z,97.70
2022-08-27T01:14:00.074Z,98.50
2022-08-27T01:17:44.522Z,97.60
2022-08-27T01:21:52.296Z,98.10
2022-08-27T01:25:34.274Z,99.90
2022-08-27T01:29:17.445Z,97.90
2022-08-27T01:32:59.348Z,98.20
2022-08-27T01:36:41.569Z,98.10
2022-08-27T01:40:23.407Z,98.40
2022-08-27T01:44:05.277Z,98.50
2022-08-27T01:47:47.639Z,98.70
2022-08-27T01:51:29.431Z,98.90
2022-08-27T01:55:13.706Z,99.10
2022-08-27T01:58:55.576Z,99.60
2022-08-27T02:02:37.427Z,99.10
2022-08-27T02:06:19.617Z,99.10
2022-08-27T02:10:01.490Z,99.20
2022-08-27T02:13:43.394Z,99.30
2022-08-27T02:17:25.277Z,99.30
2022-08-27T02:21:08.317Z,99.40
2022-08-27T02:24:50.739Z,99.50
2022-08-27T02:28:32.680Z,99.70
2022-08-27T02:32:17.608Z,99.80
2022-08-27T02:36:06.453Z,99.90
2022-08-27T02:39:48.367Z,99.80
2022-08-27T02:43:30.184Z,99.90
2022-08-27T02:47:12.688Z,99.90
2022-08-27T02:50:54.983Z,99.90
2022-08-27T02:54:36.933Z,99.90
2022-08-27T02:58:18.764Z,99.90
2022-08-27T03:02:01.871Z,99.90
2022-08-27T03:05:45.397Z,99.90
2022-08-27T03:09:27.456Z,99.90
2022-08-27T03:13:09.874Z,99.90
2022-08-27T03:16:51.807Z,99.90
2022-08-27T03:20:34.408Z,99.90
2022-08-27T03:24:16.531Z,99.90
2022-08-27T03:27:58.678Z,99.90
2022-08-27T03:31:40.503Z,99.90
2022-08-27T03:35:23.184Z,99.90
2022-08-27T03:39:05.143Z,99.90
2022-08-27T03:42:47.196Z,99.90
2022-08-27T03:46:31.492Z,99.90
2022-08-27T03:50:13.586Z,99.90
2022-08-27T03:53:55.388Z,99.90
2022-08-27T03:57:37.194Z,99.90
2022-08-27T04:01:19.382Z,99.90
2022-08-27T04:05:01.206Z,99.90
2022-08-27T04:08:43.679Z,99.90
2022-08-27T04:12:26.944Z,99.90
2022-08-27T04:16:08.966Z,99.90
2022-08-27T04:19:53.825Z,99.90
2022-08-27T04:23:35.841Z,99.90
2022-08-27T04:27:18.410Z,99.90
2022-08-27T04:31:02.995Z,99.90
2022-08-27T04:34:44.962Z,99.90
2022-08-27T04:38:27.209Z,99.90
2022-08-27T04:42:09.024Z,99.90
2022-08-27T04:45:50.897Z,99.90
2022-08-27T04:49:34.034Z,99.90
2022-08-27T04:53:17.160Z,99.90
2022-08-27T04:57:00.005Z,99.90
2022-08-27T05:00:48.431Z,99.90
2022-08-27T05:04:30.889Z,99.90
2022-08-27T05:08:13.235Z,99.90
2022-08-27T05:11:56.256Z,99.90
2022-08-27T05:15:39.377Z,99.90
2022-08-27T05:19:21.862Z,99.90
2022-08-27T05:23:03.835Z,99.90
2022-08-27T05:26:46.382Z,99.90
2022-08-27T05:30:28.373Z,99.90
2022-08-27T05:34:18.569Z,99.90
2022-08-27T05:38:10.822Z,99.90
2022-08-27T05:42:00.292Z,99.90
2022-08-27T05:45:51.184Z,99.90
2022-08-27T05:49:32.987Z,99.90
2022-08-27T05:53:15.001Z,99.90
2022-08-27T05:56:56.793Z,99.90
2022-08-27T06:01:01.672Z,99.90
2022-08-27T06:04:44.804Z,99.90
2022-08-27T06:08:26.672Z,99.90
2022-08-27T06:12:09.178Z,99.90
2022-08-27T06:15:51.299Z,99.90
2022-08-27T06:19:34.997Z,99.90
2022-08-27T06:23:17.490Z,99.90
2022-08-27T06:27:12.916Z,99.90
2022-08-27T06:31:02.319Z,99.90
2022-08-27T06:34:44.254Z,99.90
2022-08-27T06:38:27.221Z,99.90
2022-08-27T06:42:13.430Z,99.90
2022-08-27T06:45:55.889Z,99.90
2022-08-27T06:49:40.881Z,99.90
2022-08-27T06:53:24.314Z,99.90
2022-08-27T06:57:06.580Z,99.90
2022-08-27T07:00:49.148Z,99.90
2022-08-27T07:04:32.769Z,99.90
2022-08-27T07:08:14.933Z,99.90
2022-08-27T07:11:57.349Z,99.90
2022-08-27T07:15:39.714Z,99.90
2022-08-27T07:19:23.159Z,99.90
2022-08-27T07:23:08.333Z,99.90
2022-08-27T07:26:52.746Z,99.90
2022-08-27T07:30:34.605Z,99.90
2022-08-27T07:34:16.492Z,99.90
2022-08-27T07:37:58.989Z,99.90
2022-08-27T07:41:59.722Z,99.90
2022-08-27T07:45:47.073Z,99.90
2022-08-27T07:49:30.143Z,99.90
2022-08-27T07:53:11.969Z,99.90
2022-08-27T07:56:56.023Z,99.90
2022-08-27T08:00:40.476Z,99.90
2022-08-27T08:04:23.258Z,99.90
2022-08-27T08:08:05.155Z,99.90
2022-08-27T08:11:47.016Z,99.90
2022-08-27T08:15:29.575Z,99.90
2022-08-27T08:19:11.658Z,99.90
2022-08-27T08:22:53.649Z,99.90
2022-08-27T08:26:35.903Z,99.90
2022-08-27T08:30:17.726Z,99.90
2022-08-27T08:33:59.513Z,99.90
2022-08-27T08:37:44.826Z,99.90
2022-08-27T08:41:48.548Z,99.90
2022-08-27T08:45:34.917Z,99.90
2022-08-27T08:49:34.851Z,99.90
2022-08-27T08:53:26.233Z,99.90
2022-08-27T08:57:28.212Z,99.90
2022-08-27T09:01:10.856Z,99.90
2022-08-27T09:04:53.186Z,99.90
2022-08-27T09:08:42.067Z,99.90
2022-08-27T09:12:30.863Z,99.90
2022-08-27T09:16:12.780Z,99.90
2022-08-27T09:19:54.605Z,99.90
2022-08-27T09:24:02.701Z,99.90
2022-08-27T09:27:44.715Z,96.60
2022-08-27T09:31:27.519Z,99.90
2022-08-27T09:35:13.057Z,99.20
2022-08-27T09:38:59.088Z,95.10
2022-08-27T09:43:09.880Z,88.50
2022-08-27T09:47:00.693Z,90.90
2022-08-27T09:50:53.439Z,87.40
2022-08-27T09:54:44.826Z,69.70
2022-08-27T09:58:32.001Z,70.50
2022-08-27T10:02:17.411Z,69.10
2022-08-27T10:06:00.435Z,71.00
2022-08-27T10:09:53.069Z,71.60
2022-08-27T10:13:52.006Z,56.00
2022-08-27T10:17:42.785Z,57.70
2022-08-27T10:21:46.056Z,56.10
2022-08-27T10:25:49.027Z,54.90
2022-08-27T10:30:12.037Z,53.00
2022-08-27T10:34:08.905Z,51.20
2022-08-27T10:38:06.962Z,56.90
2022-08-27T10:42:04.637Z,53.90
2022-08-27T10:46:26.970Z,44.40
2022-08-27T10:50:34.327Z,45.90
2022-08-27T10:54:35.897Z,45.70
2022-08-27T10:58:23.062Z,42.70
2022-08-27T11:02:16.693Z,42.80
2022-08-27T11:06:03.352Z,45.20
2022-08-27T11:09:57.211Z,41.10
2022-08-27T11:13:49.253Z,40.70
2022-08-27T11:17:43.933Z,40.80
2022-08-27T11:21:41.301Z,41.10
2022-08-27T11:25:23.463Z,43.60
2022-08-27T11:29:30.593Z,43.10
2022-08-27T11:33:24.442Z,37.80
2022-08-27T11:37:29.792Z,37.30
2022-08-27T11:41:48.245Z,37.90
2022-08-27T11:45:38.843Z,38.60
2022-08-27T11:49:46.028Z,36.20
2022-08-27T11:53:31.109Z,37.30
2022-08-27T11:57:36.754Z,37.50
2022-08-27T12:01:30.452Z,37.20
2022-08-27T12:05:32.509Z,37.90
2022-08-27T12:09:22.958Z,38.80
2022-08-27T12:13:23.600Z,41.70
2022-08-27T12:17:30.468Z,42.00
2022-08-27T12:21:35.742Z,40.50
2022-08-27T12:25:22.117Z,39.70
2022-08-27T12:29:43.933Z,38.70
2022-08-27T12:33:45.443Z,36.40
2022-08-27T12:37:31.781Z,33.30
2022-08-27T12:41:27.841Z,36.40
2022-08-27T13:18:21.617Z,33.20
2022-08-27T13:22:06.041Z,30.80
2022-08-27T13:26:21.685Z,32.30
2022-08-27T13:30:10.569Z,31.50
2022-08-27T13:33:59.883Z,30.20
2022-08-27T13:37:53.245Z,31.30
2022-08-27T13:41:37.643Z,30.00
2022-08-27T13:45:19.582Z,30.80
2022-08-27T13:49:01.497Z,30.90
2022-08-27T13:53:02.131Z,30.50
2022-08-27T13:56:46.736Z,30.20
2022-08-27T14:00:32.420Z,29.20
2022-08-27T14:04:23.653Z,29.40
2022-08-27T14:08:17.948Z,28.00
2022-08-27T14:12:06.300Z,28.40
2022-08-27T14:15:54.115Z,28.10
2022-08-27T14:19:36.756Z,28.90
2022-08-27T14:23:18.948Z,29.10
2022-08-27T14:27:10.613Z,28.60
2022-08-27T14:30:53.775Z,26.30
2022-08-27T14:34:37.090Z,28.70
2022-08-27T14:38:24.204Z,28.80
2022-08-27T14:42:06.680Z,27.90
2022-08-27T14:45:48.914Z,28.60
2022-08-27T14:49:39.828Z,28.30
2022-08-27T14:53:21.673Z,27.50
2022-08-27T14:57:05.624Z,28.40
2022-08-27T15:00:47.715Z,29.20
2022-08-27T15:04:30.663Z,29.10
2022-08-27T15:08:15.957Z,28.80
2022-08-27T15:11:58.870Z,28.50
2022-08-27T15:15:41.398Z,28.10
2022-08-27T15:19:24.944Z,28.10
2022-08-27T15:23:06.867Z,27.80
2022-08-27T15:26:49.454Z,28.00
2022-08-27T15:30:31.310Z,28.00
2022-08-27T15:34:13.772Z,28.10
2022-08-27T15:37:57.025Z,27.80
2022-08-27T15:42:05.363Z,27.20
2022-08-27T15:45:43.367Z,27.50
2022-08-27T15:49:25.304Z,28.10
2022-08-27T15:53:08.874Z,28.80
2022-08-27T15:56:50.814Z,29.60
2022-08-27T16:00:34.249Z,30.20
2022-08-27T16:04:16.235Z,31.10
2022-08-27T16:07:58.051Z,31.80
2022-08-27T16:11:40.840Z,32.40
2022-08-27T16:15:22.724Z,33.70
2022-08-27T16:19:06.535Z,33.50
2022-08-27T16:22:48.413Z,34.20
2022-08-27T16:26:30.324Z,34.70
2022-08-27T16:30:12.766Z,35.10
2022-08-27T16:33:54.618Z,35.40
2022-08-27T16:37:36.564Z,35.80
2022-08-27T16:41:18.452Z,36.00
2022-08-27T16:45:01.727Z,36.40
2022-08-27T16:49:01.986Z,36.70
2022-08-27T16:52:43.914Z,37.10
2022-08-27T16:56:28.698Z,37.30
2022-08-27T17:00:10.886Z,37.60
2022-08-27T17:04:09.047Z,38.50
2022-08-27T17:07:54.600Z,38.40
2022-08-27T17:11:40.383Z,38.20
2022-08-27T17:15:22.179Z,38.50
2022-08-27T17:19:05.734Z,38.50
2022-08-27T17:22:47.569Z,38.60
2022-08-27T17:26:31.073Z,39.10
2022-08-27T17:30:13.336Z,39.40
2022-08-27T17:33:59.325Z,38.50
2022-08-27T17:37:45.185Z,38.40
2022-08-27T17:41:34.076Z,38.40
2022-08-27T17:45:17.345Z,38.50
2022-08-27T17:48:59.712Z,39.30
2022-08-27T17:52:41.513Z,38.40
2022-08-27T18:04:31.332Z,41.60
2022-08-27T18:08:14.862Z,40.10
2022-08-27T18:11:57.573Z,40.40
2022-08-27T18:15:42.157Z,40.50
2022-08-27T18:19:24.250Z,41.20
2022-08-27T18:23:07.402Z,41.10
2022-08-27T18:26:49.570Z,41.50
2022-08-27T18:30:31.695Z,41.60
2022-08-27T18:34:18.803Z,41.80
2022-08-27T18:38:02.490Z,42.00
2022-08-27T18:41:44.559Z,42.00
2022-08-27T18:45:28.767Z,42.30
2022-08-27T18:49:11.769Z,42.90
2022-08-27T18:52:55.356Z,42.90
2022-08-27T18:56:37.430Z,43.20
2022-08-27T19:00:19.705Z,44.00
2022-08-27T19:04:03.336Z,43.70
2022-08-27T19:07:45.237Z,43.90
2022-08-27T19:11:27.010Z,44.10
2022-08-27T19:15:11.524Z,44.30
2022-08-27T19:18:53.456Z,44.60
2022-08-27T19:22:35.444Z,45.00
2022-08-27T19:26:23.485Z,45.20
2022-08-27T19:30:07.107Z,46.40
2022-08-27T19:33:49.080Z,45.80
2022-08-27T19:37:31.791Z,45.80
2022-08-27T19:41:13.577Z,45.90
2022-08-27T19:44:55.415Z,45.90
2022-08-27T19:48:38.546Z,45.90
2022-08-27T19:52:20.662Z,46.10
2022-08-27T19:56:03.411Z,46.20
2022-08-27T19:59:45.316Z,46.40
2022-08-27T20:03:27.753Z,46.50
2022-08-27T20:07:09.565Z,46.70
2022-08-27T20:10:51.524Z,46.80
2022-08-27T20:14:33.515Z,46.90
2022-08-27T20:18:20.088Z,47.10
2022-08-27T20:22:02.735Z,47.30
2022-08-27T20:25:45.401Z,47.50
2022-08-27T20:29:32.802Z,47.60
2022-08-27T20:33:15.100Z,47.80
2022-08-27T20:36:58.615Z,47.80
2022-08-27T20:40:40.868Z,47.90
2022-08-27T20:44:22.754Z,48.10
2022-08-27T20:48:05.409Z,48.30
2022-08-27T20:51:53.472Z,48.30
2022-08-27T20:55:44.327Z,48.40
2022-08-27T20:59:44.780Z,48.50
2022-08-27T21:03:27.134Z,48.70
2022-08-27T21:07:09.533Z,48.70
2022-08-27T21:10:53.642Z,48.80
2022-08-27T21:14:35.666Z,49.20
2022-08-27T21:18:19.392Z,49.00
2022-08-27T21:22:06.145Z,49.10
2022-08-27T21:25:48.273Z,49.30
2022-08-27T21:29:30.220Z,49.50
2022-08-27T21:33:12.126Z,49.50
2022-08-27T21:36:54.433Z,49.70
2022-08-27T21:40:36.473Z,49.80
2022-08-27T21:44:18.528Z,49.90
2022-08-27T21:48:00.390Z,50.10
2022-08-27T21:51:42.243Z,50.30
2022-08-27T21:55:24.134Z,50.50
2022-08-27T21:59:06.318Z,50.80
2022-08-27T22:02:48.148Z,51.50
2022-08-27T22:06:30.100Z,51.10
2022-08-27T22:10:11.987Z,51.40
2022-08-27T22:13:54.008Z,51.60
2022-08-27T22:17:36.950Z,52.00
2022-08-27T22:21:18.760Z,52.40
2022-08-27T22:25:00.553Z,52.60
2022-08-27T22:28:42.450Z,52.80
2022-08-27T22:32:24.316Z,52.90
2022-08-27T22:36:06.341Z,53.10
2022-08-27T22:39:48.179Z,53.10
2022-08-27T22:43:30.433Z,53.40
2022-08-27T22:47:14.533Z,53.50
2022-08-27T22:50:56.407Z,53.90
2022-08-27T22:54:38.421Z,54.00
2022-08-27T22:58:24.400Z,54.30
2022-08-27T23:02:09.370Z,54.40
2022-08-27T23:05:51.278Z,54.60
2022-08-27T23:09:34.211Z,54.50
2022-08-27T23:13:16.049Z,54.90
2022-08-27T23:16:57.887Z,54.80
2022-08-27T23:20:39.852Z,54.70
2022-08-27T23:24:21.784Z,54.80
2022-08-27T23:28:12.332Z,55.10
2022-08-27T23:31:58.520Z,55.60
2022-08-27T23:35:43.393Z,55.50
2022-08-27T23:39:25.518Z,55.80
2022-08-27T23:43:07.452Z,56.10
2022-08-27T23:46:49.342Z,56.50
2022-08-27T23:50:34.325Z,56.80
2022-08-27T23:54:16.341Z,57.10
2022-08-27T23:57:58.128Z,57.20
